createdAt,value
2017-02-26T00:00:22.465Z,3.52
2017-02-26T00:01:17.391Z,3.43
2017-02-26T00:02:13.589Z,3.27
2017-02-26T00:03:22.112Z,3.47
2017-02-26T00:04:15.425Z,3.49
2017-02-26T00:05:15.755Z,3.41
2017-02-26T00:06:14.048Z,3.68
2017-02-26T00:07:22.241Z,3.53
2017-02-26T00:08:17.556Z,3.54
2017-02-26T00:09:22.436Z,3.56
2017-02-26T00:10:16.125Z,3.66
2017-02-26T00:11:22.253Z,3.55
2017-02-26T00:12:18.130Z,3.42
2017-02-26T00:13:14.061Z,3.59
2017-02-26T00:14:17.169Z,3.73
2017-02-26T00:15:17.291Z,3.78
2017-02-26T00:16:15.740Z,3.57
2017-02-26T00:17:16.916Z,3.65
2017-02-26T00:18:13.965Z,3.63
2017-02-26T00:19:17.466Z,3.42
2017-02-26T00:20:16.645Z,3.78
2017-02-26T00:21:22.307Z,3.66
2017-02-26T00:22:18.437Z,3.73
2017-02-26T00:23:14.989Z,3.57
2017-02-26T00:24:17.424Z,3.55
2017-02-26T00:25:17.935Z,3.66
2017-02-26T00:26:22.129Z,3.50
2017-02-26T00:27:16.987Z,3.54
2017-02-26T00:28:17.201Z,3.56
2017-02-26T00:29:14.044Z,3.58
2017-02-26T00:30:23.166Z,3.68
2017-02-26T00:31:16.969Z,3.59
2017-02-26T00:32:16.765Z,3.85
2017-02-26T00:33:22.175Z,3.80
2017-02-26T00:34:21.866Z,3.58
2017-02-26T00:35:22.437Z,3.72
2017-02-26T00:36:17.311Z,3.66
2017-02-26T00:37:15.514Z,3.68
2017-02-26T00:38:17.706Z,3.75
2017-02-26T00:39:16.515Z,3.59
2017-02-26T00:40:22.255Z,3.65
2017-02-26T00:41:17.810Z,3.55
2017-02-26T00:42:22.285Z,3.39
2017-02-26T00:43:22.305Z,3.67
2017-02-26T00:44:17.505Z,3.69
2017-02-26T00:45:12.561Z,3.75
2017-02-26T00:46:17.986Z,3.66
2017-02-26T00:47:17.081Z,3.72
2017-02-26T00:48:17.867Z,3.87
2017-02-26T00:49:11.808Z,3.60
2017-02-26T00:50:16.494Z,3.68
2017-02-26T00:51:17.974Z,3.64
2017-02-26T00:52:17.810Z,3.67
2017-02-26T00:53:13.706Z,3.85
2017-02-26T00:54:25.936Z,3.66
2017-02-26T00:55:19.163Z,3.70
2017-02-26T00:56:22.483Z,3.75
2017-02-26T00:57:22.399Z,3.61
2017-02-26T00:58:21.737Z,3.65
2017-02-26T00:59:16.805Z,3.77
2017-02-26T01:00:22.331Z,3.80
2017-02-26T01:01:17.464Z,3.57
2017-02-26T01:02:15.421Z,3.78
2017-02-26T01:03:18.142Z,3.59
2017-02-26T01:04:14.125Z,3.51
2017-02-26T01:05:17.851Z,3.48
2017-02-26T01:06:21.195Z,3.53
2017-02-26T01:07:14.387Z,3.64
2017-02-26T01:08:18.041Z,3.69
2017-02-26T01:09:18.177Z,3.77
2017-02-26T01:10:18.193Z,3.72
2017-02-26T01:11:18.111Z,3.82
2017-02-26T01:12:15.177Z,3.90
2017-02-26T01:13:17.267Z,3.76
2017-02-26T01:14:14.751Z,3.74
2017-02-26T01:15:13.876Z,3.93
2017-02-26T01:16:16.554Z,3.92
2017-02-26T01:17:16.789Z,3.84
2017-02-26T01:18:14.865Z,3.82
2017-02-26T01:19:15.857Z,3.77
2017-02-26T01:20:16.757Z,3.74
2017-02-26T01:24:18.526Z,3.81
2017-02-26T01:25:16.668Z,3.87
2017-02-26T01:26:15.826Z,3.86
2017-02-26T01:27:22.352Z,3.87
2017-02-26T01:28:16.578Z,3.81
2017-02-26T01:29:17.447Z,4.10
2017-02-26T01:30:12.532Z,3.99
2017-02-26T01:31:17.806Z,3.77
2017-02-26T01:32:22.534Z,4.02
2017-02-26T01:33:17.234Z,3.97
2017-02-26T01:34:14.686Z,3.94
2017-02-26T01:35:16.238Z,3.98
2017-02-26T01:36:22.361Z,3.88
2017-02-26T01:37:26.537Z,3.84
2017-02-26T01:38:16.708Z,3.80
2017-02-26T01:39:18.173Z,3.91
2017-02-26T01:40:13.429Z,3.85
2017-02-26T01:41:18.057Z,3.98
2017-02-26T01:42:17.170Z,3.85
2017-02-26T01:43:15.084Z,3.82
2017-02-26T01:44:17.324Z,3.96
2017-02-26T01:45:18.185Z,4.19
2017-02-26T01:46:15.565Z,4.00
2017-02-26T01:47:21.694Z,4.12
2017-02-26T01:48:14.267Z,4.03
2017-02-26T01:49:17.798Z,4.03
2017-02-26T01:50:18.095Z,4.18
2017-02-26T01:51:15.321Z,3.89
2017-02-26T01:52:13.600Z,4.00
2017-02-26T01:53:16.078Z,3.89
2017-02-26T01:54:22.218Z,3.92
2017-02-26T01:55:16.890Z,3.89
2017-02-26T01:56:18.244Z,3.97
2017-02-26T01:57:17.357Z,3.92
2017-02-26T01:58:17.841Z,3.77
2017-02-26T01:59:16.356Z,3.91
2017-02-26T02:00:16.744Z,3.90
2017-02-26T02:01:16.877Z,3.95
2017-02-26T02:02:17.916Z,3.92
2017-02-26T02:03:21.565Z,4.11
2017-02-26T02:04:22.266Z,3.93
2017-02-26T02:05:21.735Z,3.87
2017-02-26T02:06:16.913Z,3.99
2017-02-26T02:07:16.913Z,3.95
2017-02-26T02:08:22.284Z,4.13
2017-02-26T02:09:16.724Z,4.10
2017-02-26T02:10:15.160Z,3.98
2017-02-26T02:11:17.931Z,3.96
2017-02-26T02:12:17.013Z,4.04
2017-02-26T02:13:16.892Z,4.15
2017-02-26T02:14:18.323Z,3.94
2017-02-26T02:15:17.607Z,3.94
2017-02-26T02:16:17.017Z,3.96
2017-02-26T02:17:17.084Z,4.11
2017-02-26T02:18:21.699Z,4.15
2017-02-26T02:19:16.940Z,4.20
2017-02-26T02:20:16.941Z,4.28
2017-02-26T02:21:15.034Z,4.21
2017-02-26T02:22:22.233Z,4.36
2017-02-26T02:23:21.603Z,4.17
2017-02-26T02:24:22.052Z,4.25
2017-02-26T02:25:21.718Z,4.19
2017-02-26T02:26:18.010Z,4.11
2017-02-26T02:27:21.678Z,4.24
2017-02-26T02:28:22.608Z,4.09
2017-02-26T02:29:16.681Z,4.14
2017-02-26T02:30:17.624Z,4.16
2017-02-26T02:31:16.810Z,4.16
2017-02-26T02:32:15.114Z,4.13
2017-02-26T02:33:16.615Z,4.04
2017-02-26T02:34:14.317Z,4.14
2017-02-26T02:35:14.369Z,4.10
2017-02-26T02:36:17.468Z,4.19
2017-02-26T02:37:17.437Z,4.04
2017-02-26T02:38:21.626Z,4.05
2017-02-26T02:39:21.705Z,4.07
2017-02-26T02:40:16.276Z,4.08
2017-02-26T02:41:21.606Z,4.20
2017-02-26T02:42:17.759Z,4.29
2017-02-26T02:43:11.801Z,4.35
2017-02-26T02:44:22.513Z,4.41
2017-02-26T02:45:13.424Z,4.22
2017-02-26T02:46:15.322Z,4.22
2017-02-26T02:47:15.299Z,4.32
2017-02-26T02:48:17.200Z,4.20
2017-02-26T02:49:17.331Z,4.14
2017-02-26T02:50:22.424Z,4.07
2017-02-26T02:51:15.104Z,4.04
2017-02-26T02:52:16.584Z,4.02
2017-02-26T02:53:19.654Z,3.89
2017-02-26T02:54:18.279Z,4.07
2017-02-26T02:55:13.937Z,3.97
2017-02-26T02:56:15.002Z,3.94
2017-02-26T02:57:17.428Z,4.04
2017-02-26T02:58:22.729Z,3.96
2017-02-26T02:59:18.421Z,4.37
2017-02-26T03:00:14.259Z,4.16
2017-02-26T03:01:20.875Z,4.27
2017-02-26T03:02:16.986Z,4.22
2017-02-26T03:03:21.690Z,4.18
2017-02-26T03:04:22.427Z,4.21
2017-02-26T03:05:17.489Z,4.28
2017-02-26T03:06:22.135Z,4.13
2017-02-26T03:07:17.389Z,4.01
2017-02-26T03:08:14.845Z,4.06
2017-02-26T03:09:16.970Z,4.01
2017-02-26T03:10:21.884Z,4.14
2017-02-26T03:11:16.525Z,4.23
2017-02-26T03:12:22.261Z,4.13
2017-02-26T03:13:17.322Z,4.14
2017-02-26T03:14:21.502Z,4.02
2017-02-26T03:15:18.260Z,4.11
2017-02-26T03:16:17.375Z,4.06
2017-02-26T03:17:14.085Z,4.11
2017-02-26T03:18:15.618Z,4.16
2017-02-26T03:19:26.336Z,4.17
2017-02-26T03:20:21.714Z,4.12
2017-02-26T03:21:17.107Z,4.12
2017-02-26T03:22:22.211Z,4.11
2017-02-26T03:23:16.763Z,4.18
2017-02-26T03:24:21.855Z,4.37
2017-02-26T03:25:15.991Z,4.25
2017-02-26T03:26:17.387Z,4.19
2017-02-26T03:27:17.465Z,4.14
2017-02-26T03:28:21.634Z,4.13
2017-02-26T03:29:17.517Z,4.24
2017-02-26T03:30:17.942Z,4.22
2017-02-26T03:31:17.916Z,3.99
2017-02-26T03:32:21.629Z,4.10
2017-02-26T03:33:22.922Z,4.27
2017-02-26T03:34:17.667Z,4.13
2017-02-26T03:35:15.724Z,4.04
2017-02-26T03:36:21.837Z,4.11
2017-02-26T03:37:17.273Z,4.12
2017-02-26T03:39:16.848Z,4.15
2017-02-26T03:40:21.893Z,4.12
2017-02-26T03:41:21.601Z,4.27
2017-02-26T03:42:17.251Z,4.15
2017-02-26T03:43:17.447Z,4.27
2017-02-26T03:44:14.471Z,4.19
2017-02-26T03:45:17.088Z,4.11
2017-02-26T03:46:22.318Z,4.03
2017-02-26T03:47:17.339Z,4.17
2017-02-26T03:48:17.476Z,4.14
2017-02-26T03:49:22.635Z,4.18
2017-02-26T03:50:18.285Z,4.09
2017-02-26T03:51:16.989Z,4.21
2017-02-26T03:52:21.686Z,4.20
2017-02-26T03:53:22.430Z,4.35
2017-02-26T03:54:16.915Z,4.32
2017-02-26T03:56:15.041Z,4.21
2017-02-26T03:57:21.601Z,4.08
2017-02-26T03:58:16.664Z,4.36
2017-02-26T03:59:21.121Z,4.17
2017-02-26T04:00:15.923Z,4.22
2017-02-26T04:01:14.005Z,4.32
2017-02-26T04:02:15.099Z,4.27
2017-02-26T04:03:15.788Z,4.15
2017-02-26T04:04:22.279Z,4.29
2017-02-26T04:05:17.540Z,4.35
2017-02-26T04:06:13.115Z,4.26
2017-02-26T04:07:14.201Z,4.39
2017-02-26T04:08:16.652Z,4.37
2017-02-26T04:09:21.714Z,4.35
2017-02-26T04:10:21.824Z,4.41
2017-02-26T04:11:16.738Z,4.26
2017-02-26T04:12:17.202Z,4.11
2017-02-26T04:13:18.111Z,4.25
2017-02-26T04:14:17.226Z,4.25
2017-02-26T04:15:21.752Z,4.26
2017-02-26T04:16:17.367Z,4.27
2017-02-26T04:17:17.501Z,4.21
2017-02-26T04:18:17.391Z,4.33
2017-02-26T04:19:16.510Z,4.34
2017-02-26T04:20:22.257Z,4.23
2017-02-26T04:21:16.489Z,4.26
2017-02-26T04:22:17.378Z,4.28
2017-02-26T04:23:17.945Z,4.17
2017-02-26T04:24:15.936Z,4.15
2017-02-26T04:25:22.323Z,4.31
2017-02-26T04:26:22.086Z,4.34
2017-02-26T04:27:22.066Z,4.30
2017-02-26T04:28:18.085Z,4.31
2017-02-26T04:29:17.225Z,4.35
2017-02-26T04:30:15.082Z,4.27
2017-02-26T04:31:18.013Z,4.30
2017-02-26T04:32:18.145Z,4.40
2017-02-26T04:33:22.460Z,4.40
2017-02-26T04:34:16.682Z,4.26
2017-02-26T04:35:13.753Z,4.22
2017-02-26T04:36:17.483Z,4.29
2017-02-26T04:37:15.541Z,4.30
2017-02-26T04:38:15.427Z,4.32
2017-02-26T04:39:21.623Z,4.33
2017-02-26T04:40:16.507Z,4.32
2017-02-26T04:41:21.595Z,4.36
2017-02-26T04:42:15.223Z,4.39
2017-02-26T04:43:15.903Z,4.49
2017-02-26T04:44:14.426Z,4.35
2017-02-26T04:45:17.333Z,4.29
2017-02-26T04:46:17.249Z,4.35
2017-02-26T04:47:15.089Z,4.36
2017-02-26T04:48:17.271Z,4.45
2017-02-26T04:49:17.304Z,4.29
2017-02-26T04:50:16.978Z,4.38
2017-02-26T04:51:15.739Z,4.36
2017-02-26T04:52:18.483Z,4.35
2017-02-26T04:53:12.600Z,4.28
2017-02-26T04:54:13.809Z,4.34
2017-02-26T04:55:21.941Z,4.48
2017-02-26T04:56:18.202Z,4.40
2017-02-26T04:57:22.600Z,4.37
2017-02-26T04:58:12.672Z,4.35
2017-02-26T04:59:11.753Z,4.38
2017-02-26T05:00:16.856Z,4.32
2017-02-26T05:01:15.571Z,4.38
2017-02-26T05:02:18.314Z,4.46
2017-02-26T05:03:16.898Z,4.37
2017-02-26T05:04:16.715Z,4.38
2017-02-26T05:05:16.996Z,4.35
2017-02-26T05:06:17.028Z,4.43
2017-02-26T05:07:21.786Z,4.33
2017-02-26T05:08:21.647Z,4.29
2017-02-26T05:09:16.389Z,4.26
2017-02-26T05:10:16.033Z,4.20
2017-02-26T05:11:22.334Z,4.28
2017-02-26T05:12:21.791Z,4.33
2017-02-26T05:13:16.918Z,4.30
2017-02-26T05:14:14.563Z,4.27
2017-02-26T05:15:21.861Z,4.32
2017-02-26T05:16:20.847Z,4.12
2017-02-26T05:17:15.229Z,4.22
2017-02-26T05:18:18.155Z,4.32
2017-02-26T05:19:16.219Z,4.26
2017-02-26T05:20:17.983Z,4.36
2017-02-26T05:21:13.929Z,4.27
2017-02-26T05:22:15.437Z,4.17
2017-02-26T05:23:21.689Z,4.30
2017-02-26T05:24:22.012Z,4.30
2017-02-26T05:26:20.704Z,4.36
2017-02-26T05:27:17.311Z,4.32
2017-02-26T05:28:20.704Z,4.29
2017-02-26T05:29:18.438Z,4.17
2017-02-26T05:30:16.585Z,4.10
2017-02-26T05:31:15.462Z,4.25
2017-02-26T05:32:14.438Z,4.17
2017-02-26T05:33:22.280Z,4.13
2017-02-26T05:34:13.989Z,4.20
2017-02-26T05:35:15.348Z,4.17
2017-02-26T05:36:21.789Z,4.05
2017-02-26T05:37:16.832Z,4.11
2017-02-26T05:38:18.195Z,4.18
2017-02-26T05:39:18.331Z,3.94
2017-02-26T05:40:17.384Z,4.03
2017-02-26T05:41:14.602Z,4.03
2017-02-26T05:42:15.695Z,4.13
2017-02-26T05:43:18.287Z,4.22
2017-02-26T05:44:14.562Z,4.09
2017-02-26T05:45:15.114Z,4.04
2017-02-26T05:46:16.849Z,4.04
2017-02-26T05:47:14.125Z,3.99
2017-02-26T05:48:11.724Z,4.06
2017-02-26T05:49:15.017Z,4.14
2017-02-26T05:50:18.153Z,4.00
2017-02-26T05:51:18.263Z,3.98
2017-02-26T05:52:13.960Z,4.03
2017-02-26T05:53:15.042Z,4.03
2017-02-26T05:54:23.309Z,4.07
2017-02-26T05:55:18.094Z,4.17
2017-02-26T05:56:13.385Z,4.02
2017-02-26T05:57:16.504Z,4.01
2017-02-26T05:58:17.313Z,4.05
2017-02-26T05:59:14.126Z,4.16
2017-02-26T06:00:17.035Z,4.20
2017-02-26T06:01:15.660Z,4.05
2017-02-26T06:02:20.673Z,4.10
2017-02-26T06:03:15.895Z,4.02
2017-02-26T06:04:21.915Z,4.06
2017-02-26T06:05:17.428Z,3.92
2017-02-26T06:06:16.979Z,3.86
2017-02-26T06:07:17.264Z,3.84
2017-02-26T06:08:11.948Z,3.96
2017-02-26T06:09:17.050Z,3.84
2017-02-26T06:10:17.132Z,3.90
2017-02-26T06:11:21.757Z,3.90
2017-02-26T06:12:16.678Z,3.90
2017-02-26T06:13:17.246Z,3.89
2017-02-26T06:14:15.743Z,3.94
2017-02-26T06:15:17.576Z,3.94
2017-02-26T06:16:22.610Z,3.97
2017-02-26T06:17:18.128Z,4.20
2017-02-26T06:18:21.798Z,4.02
2017-02-26T06:19:16.770Z,3.96
2017-02-26T06:20:17.335Z,3.95
2017-02-26T06:21:12.361Z,4.08
2017-02-26T06:22:17.080Z,4.05
2017-02-26T06:23:16.252Z,4.10
2017-02-26T06:24:17.692Z,3.96
2017-02-26T06:25:17.648Z,3.83
2017-02-26T06:26:22.093Z,3.78
2017-02-26T06:27:21.901Z,3.84
2017-02-26T06:28:15.615Z,3.96
2017-02-26T06:29:15.745Z,3.91
2017-02-26T06:30:12.843Z,3.99
2017-02-26T06:31:16.970Z,3.78
2017-02-26T06:32:17.205Z,3.78
2017-02-26T06:33:18.267Z,3.90
2017-02-26T06:34:18.513Z,3.98
2017-02-26T06:35:16.256Z,3.84
2017-02-26T06:36:22.544Z,3.87
2017-02-26T06:37:14.617Z,4.04
2017-02-26T06:38:21.876Z,3.99
2017-02-26T06:39:17.983Z,3.91
2017-02-26T06:40:20.614Z,3.96
2017-02-26T06:41:14.369Z,3.97
2017-02-26T06:42:15.701Z,3.93
2017-02-26T06:43:17.866Z,3.94
2017-02-26T06:44:16.175Z,3.91
2017-02-26T06:45:13.248Z,3.87
2017-02-26T06:46:22.356Z,3.81
2017-02-26T06:47:17.118Z,3.81
2017-02-26T06:48:20.730Z,4.01
2017-02-26T06:49:17.838Z,3.96
2017-02-26T06:50:13.783Z,3.87
2017-02-26T06:51:17.929Z,3.92
2017-02-26T06:52:13.893Z,3.89
2017-02-26T06:53:17.574Z,3.87
2017-02-26T06:54:14.290Z,3.79
2017-02-26T06:55:16.706Z,4.00
2017-02-26T06:56:15.943Z,4.11
2017-02-26T06:57:17.409Z,3.89
2017-02-26T06:58:20.606Z,3.92
2017-02-26T06:59:22.336Z,3.92
2017-02-26T07:00:13.491Z,3.98
2017-02-26T07:01:22.875Z,3.91
2017-02-26T07:02:14.460Z,3.92
2017-02-26T07:03:13.751Z,3.96
2017-02-26T07:04:16.217Z,4.16
2017-02-26T07:05:16.536Z,4.17
2017-02-26T07:06:15.191Z,4.20
2017-02-26T07:07:17.897Z,4.21
2017-02-26T07:08:18.032Z,4.15
2017-02-26T07:09:13.833Z,4.26
2017-02-26T07:10:16.971Z,4.21
2017-02-26T07:11:16.931Z,4.16
2017-02-26T07:12:14.514Z,4.14
2017-02-26T07:13:15.753Z,4.21
2017-02-26T07:14:15.374Z,4.22
2017-02-26T07:15:17.502Z,4.28
2017-02-26T07:16:11.586Z,4.32
2017-02-26T07:17:16.020Z,4.37
2017-02-26T07:18:20.575Z,4.37
2017-02-26T07:19:22.035Z,4.47
2017-02-26T07:20:18.376Z,4.44
2017-02-26T07:21:11.495Z,4.34
2017-02-26T07:22:18.125Z,4.55
2017-02-26T07:23:16.050Z,4.59
2017-02-26T07:24:17.157Z,4.57
2017-02-26T07:25:13.381Z,4.51
2017-02-26T07:26:18.112Z,4.67
2017-02-26T07:27:12.228Z,4.69
2017-02-26T07:28:17.107Z,4.65
2017-02-26T07:29:18.167Z,4.68
2017-02-26T07:30:11.849Z,4.69
2017-02-26T07:31:17.252Z,4.83
2017-02-26T07:32:17.355Z,4.79
2017-02-26T07:33:17.491Z,4.79
2017-02-26T07:34:16.665Z,4.93
2017-02-26T07:35:18.347Z,4.84
2017-02-26T07:36:17.188Z,4.96
2017-02-26T07:37:18.222Z,5.07
2017-02-26T07:38:12.784Z,5.22
2017-02-26T07:39:17.900Z,5.14
2017-02-26T07:40:16.942Z,5.20
2017-02-26T07:41:13.211Z,5.33
2017-02-26T07:42:14.816Z,5.33
2017-02-26T07:43:21.102Z,5.41
2017-02-26T07:44:16.334Z,5.45
2017-02-26T07:45:15.814Z,5.49
2017-02-26T07:46:22.076Z,5.61
2017-02-26T07:47:12.649Z,5.66
2017-02-26T07:48:17.937Z,5.71
2017-02-26T07:49:13.633Z,5.73
2017-02-26T07:50:22.016Z,5.83
2017-02-26T07:51:22.156Z,6.01
2017-02-26T07:52:17.544Z,5.91
2017-02-26T07:53:15.378Z,5.95
2017-02-26T07:54:17.209Z,5.98
2017-02-26T07:55:13.315Z,6.05
2017-02-26T07:56:21.676Z,6.16
2017-02-26T07:57:21.778Z,6.03
2017-02-26T07:58:22.473Z,6.13
2017-02-26T07:59:22.409Z,6.00
2017-02-26T08:00:19.021Z,6.19
2017-02-26T08:01:18.095Z,6.09
2017-02-26T08:02:13.725Z,5.97
2017-02-26T08:03:16.818Z,5.98
2017-02-26T08:04:15.835Z,5.93
2017-02-26T08:05:16.941Z,6.02
2017-02-26T08:06:21.736Z,6.19
2017-02-26T08:07:18.396Z,6.09
2017-02-26T08:08:13.980Z,5.90
2017-02-26T08:09:16.872Z,5.99
2017-02-26T08:10:16.630Z,6.16
2017-02-26T08:11:17.414Z,6.19
2017-02-26T08:12:16.858Z,6.34
2017-02-26T08:13:17.561Z,6.29
2017-02-26T08:14:20.533Z,6.31
2017-02-26T08:15:16.448Z,6.46
2017-02-26T08:16:21.839Z,6.41
2017-02-26T08:17:17.007Z,6.38
2017-02-26T08:18:22.131Z,6.43
2017-02-26T08:20:17.459Z,6.48
2017-02-26T08:21:22.361Z,6.60
2017-02-26T08:22:21.668Z,6.68
2017-02-26T08:23:16.617Z,6.70
2017-02-26T08:24:20.737Z,6.72
2017-02-26T08:25:21.828Z,6.68
2017-02-26T08:26:18.919Z,6.72
2017-02-26T08:28:16.743Z,6.82
2017-02-26T08:29:12.835Z,6.73
2017-02-26T08:30:16.960Z,6.81
2017-02-26T08:32:21.427Z,7.01
2017-02-26T08:33:16.786Z,7.06
2017-02-26T08:34:14.208Z,7.04
2017-02-26T08:35:26.245Z,6.86
2017-02-26T08:36:21.325Z,7.11
2017-02-26T08:37:21.786Z,7.21
2017-02-26T08:38:16.451Z,7.26
2017-02-26T08:39:27.512Z,7.23
2017-02-26T08:40:14.405Z,7.22
2017-02-26T08:41:18.484Z,7.34
2017-02-26T08:42:21.942Z,7.22
2017-02-26T08:43:26.827Z,7.23
2017-02-26T08:44:15.553Z,7.40
2017-02-26T08:45:16.705Z,7.40
2017-02-26T08:46:19.490Z,7.41
2017-02-26T08:47:17.344Z,7.38
2017-02-26T08:48:23.092Z,7.56
2017-02-26T08:49:21.185Z,7.69
2017-02-26T08:51:16.897Z,7.55
2017-02-26T08:53:16.165Z,7.72
2017-02-26T08:54:14.139Z,7.58
2017-02-26T08:55:21.215Z,7.76
2017-02-26T08:56:14.497Z,7.87
2017-02-26T08:57:21.976Z,7.76
2017-02-26T08:58:20.723Z,7.61
2017-02-26T08:59:16.136Z,7.73
2017-02-26T09:00:12.458Z,7.77
2017-02-26T09:01:16.807Z,7.86
2017-02-26T09:02:21.829Z,7.73
2017-02-26T09:03:11.855Z,7.70
2017-02-26T09:04:17.295Z,7.82
2017-02-26T09:05:21.929Z,7.75
2017-02-26T09:06:17.017Z,7.72
2017-02-26T09:07:13.701Z,7.76
2017-02-26T09:08:16.473Z,7.85
2017-02-26T09:09:11.236Z,7.89
2017-02-26T09:10:22.018Z,7.91
2017-02-26T09:11:22.131Z,8.00
2017-02-26T09:12:21.316Z,7.98
2017-02-26T09:13:21.880Z,7.92
2017-02-26T09:14:16.419Z,7.85
2017-02-26T09:15:19.045Z,7.90
2017-02-26T09:17:22.474Z,8.13
2017-02-26T09:18:16.764Z,8.23
2017-02-26T09:20:12.204Z,8.03
2017-02-26T09:21:16.483Z,8.09
2017-02-26T09:22:21.599Z,8.15
2017-02-26T09:23:15.653Z,8.17
2017-02-26T09:24:16.800Z,8.21
2017-02-26T09:25:22.019Z,8.30
2017-02-26T09:26:16.068Z,8.21
2017-02-26T09:27:13.404Z,7.95
2017-02-26T09:28:13.119Z,7.99
2017-02-26T09:29:15.568Z,8.11
2017-02-26T09:30:11.955Z,8.01
2017-02-26T09:32:15.038Z,8.08
2017-02-26T09:33:09.715Z,8.11
2017-02-26T09:34:27.977Z,7.99
2017-02-26T09:35:15.042Z,7.97
2017-02-26T09:36:16.139Z,7.92
2017-02-26T09:37:11.812Z,7.94
2017-02-26T09:39:21.542Z,7.93
2017-02-26T09:40:22.262Z,8.12
2017-02-26T09:43:16.078Z,8.06
2017-02-26T09:44:17.369Z,8.21
2017-02-26T09:48:15.010Z,8.12
2017-02-26T09:49:21.589Z,8.23
2017-02-26T09:50:20.753Z,8.09
2017-02-26T09:52:12.487Z,8.30
2017-02-26T09:53:20.722Z,8.36
2017-02-26T09:54:22.715Z,8.40
2017-02-26T09:55:15.813Z,8.35
2017-02-26T09:56:11.961Z,8.46
2017-02-26T09:57:14.154Z,8.53
2017-02-26T09:58:14.432Z,8.35
2017-02-26T09:59:10.162Z,8.53
2017-02-26T10:00:21.041Z,8.61
2017-02-26T10:01:17.321Z,8.66
2017-02-26T10:03:16.528Z,8.77
2017-02-26T10:06:27.183Z,8.56
2017-02-26T10:07:21.852Z,8.56
2017-02-26T10:09:09.692Z,8.81
2017-02-26T10:10:21.338Z,8.78
2017-02-26T10:11:23.545Z,8.78
2017-02-26T10:13:14.705Z,8.95
2017-02-26T10:14:21.286Z,8.94
2017-02-26T10:15:22.402Z,9.00
2017-02-26T10:16:27.043Z,8.95
2017-02-26T10:17:20.086Z,8.87
2017-02-26T10:18:26.410Z,8.88
2017-02-26T10:19:17.192Z,9.00
2017-02-26T10:20:18.795Z,9.08
2017-02-26T10:21:13.691Z,9.04
2017-02-26T10:22:21.021Z,9.14
2017-02-26T10:23:16.995Z,9.11
2017-02-26T10:24:16.465Z,9.06
2017-02-26T10:25:15.210Z,9.19
2017-02-26T10:27:23.258Z,9.25
2017-02-26T10:30:26.300Z,9.22
2017-02-26T10:32:14.421Z,9.27
2017-02-26T10:33:22.019Z,9.30
2017-02-26T10:34:13.489Z,9.35
2017-02-26T10:35:21.774Z,9.40
2017-02-26T10:36:15.357Z,9.46
2017-02-26T10:37:17.322Z,9.50
2017-02-26T10:38:17.474Z,9.46
2017-02-26T10:39:22.132Z,9.31
2017-02-26T10:40:20.466Z,9.32
2017-02-26T10:41:16.191Z,9.40
2017-02-26T10:42:16.696Z,9.42
2017-02-26T10:43:17.159Z,9.60
2017-02-26T10:44:15.386Z,9.64
2017-02-26T10:45:14.119Z,9.74
2017-02-26T10:46:17.010Z,9.77
2017-02-26T10:47:23.007Z,9.77
2017-02-26T10:48:22.363Z,9.79
2017-02-26T10:49:17.046Z,9.84
2017-02-26T10:50:21.687Z,9.95
2017-02-26T10:51:16.842Z,10.08
2017-02-26T10:52:16.472Z,10.07
2017-02-26T10:53:17.491Z,10.01
2017-02-26T10:54:21.664Z,10.08
2017-02-26T10:55:17.337Z,10.11
2017-02-26T10:56:17.036Z,10.15
2017-02-26T10:57:21.933Z,10.12
2017-02-26T10:58:17.092Z,10.14
2017-02-26T10:59:13.388Z,10.18
2017-02-26T11:00:13.462Z,10.19
2017-02-26T11:01:28.758Z,10.26
2017-02-26T11:02:12.608Z,10.29
2017-02-26T11:03:21.049Z,10.25
2017-02-26T11:04:22.172Z,10.19
2017-02-26T11:05:17.252Z,10.22
2017-02-26T11:06:22.963Z,10.13
2017-02-26T11:07:21.945Z,10.15
2017-02-26T11:08:16.055Z,10.11
2017-02-26T11:09:13.257Z,10.14
2017-02-26T11:10:17.274Z,10.10
2017-02-26T11:11:17.343Z,10.18
2017-02-26T11:12:17.476Z,10.19
2017-02-26T11:13:16.515Z,10.27
2017-02-26T11:14:11.122Z,10.34
2017-02-26T11:15:17.534Z,10.37
2017-02-26T11:16:21.642Z,10.51
2017-02-26T11:17:11.910Z,10.63
2017-02-26T11:18:17.532Z,10.66
2017-02-26T11:19:21.606Z,10.61
2017-02-26T11:20:14.835Z,10.56
2017-02-26T11:21:18.433Z,10.73
2017-02-26T11:22:17.559Z,10.80
2017-02-26T11:23:13.083Z,10.79
2017-02-26T11:24:17.270Z,10.74
2017-02-26T11:25:17.301Z,10.78
2017-02-26T11:26:22.080Z,10.94
2017-02-26T11:27:11.927Z,11.00
2017-02-26T11:28:16.988Z,10.96
2017-02-26T11:29:15.233Z,11.03
2017-02-26T11:30:22.000Z,10.97
2017-02-26T11:31:17.318Z,10.96
2017-02-26T11:32:17.125Z,10.99
2017-02-26T11:33:17.394Z,11.01
2017-02-26T11:34:12.496Z,11.02
2017-02-26T11:35:20.921Z,11.14
2017-02-26T11:36:27.395Z,11.19
2017-02-26T11:37:18.256Z,11.28
2017-02-26T11:38:16.015Z,11.38
2017-02-26T11:39:17.193Z,11.49
2017-02-26T11:40:17.039Z,11.43
2017-02-26T11:41:21.003Z,11.36
2017-02-26T11:42:17.183Z,11.35
2017-02-26T11:43:16.630Z,11.32
2017-02-26T11:44:15.811Z,11.26
2017-02-26T11:45:22.362Z,11.25
2017-02-26T11:46:17.484Z,11.33
2017-02-26T11:47:17.398Z,11.27
2017-02-26T11:48:17.013Z,11.37
2017-02-26T11:49:13.897Z,11.43
2017-02-26T11:50:22.508Z,11.44
2017-02-26T11:51:15.727Z,11.45
2017-02-26T11:52:22.401Z,11.43
2017-02-26T11:53:21.877Z,11.59
2017-02-26T11:54:17.124Z,11.52
2017-02-26T11:55:17.272Z,11.65
2017-02-26T11:56:17.349Z,11.64
2017-02-26T11:57:17.381Z,11.70
2017-02-26T11:58:14.499Z,11.67
2017-02-26T11:59:13.809Z,11.69
2017-02-26T12:00:13.881Z,11.73
2017-02-26T12:01:14.538Z,11.78
2017-02-26T12:02:22.041Z,11.83
2017-02-26T12:03:16.702Z,11.80
2017-02-26T12:04:16.833Z,11.74
2017-02-26T12:05:17.719Z,11.77
2017-02-26T12:06:16.610Z,11.82
2017-02-26T12:07:13.863Z,11.87
2017-02-26T12:08:16.958Z,11.84
2017-02-26T12:09:13.659Z,11.96
2017-02-26T12:10:17.410Z,11.85
2017-02-26T12:11:15.774Z,11.86
2017-02-26T12:12:17.226Z,11.85
2017-02-26T12:13:13.664Z,11.85
2017-02-26T12:14:15.384Z,11.92
2017-02-26T12:15:15.707Z,11.88
2017-02-26T12:16:24.096Z,11.87
2017-02-26T12:17:15.289Z,11.90
2017-02-26T12:18:14.838Z,11.80
2017-02-26T12:19:14.575Z,11.83
2017-02-26T12:20:17.231Z,11.81
2017-02-26T12:21:21.733Z,11.84
2017-02-26T12:22:18.402Z,11.86
2017-02-26T12:23:15.778Z,11.86
2017-02-26T12:24:11.367Z,11.89
2017-02-26T12:25:17.505Z,11.81
2017-02-26T12:26:13.300Z,11.91
2017-02-26T12:27:19.426Z,11.96
2017-02-26T12:28:21.565Z,11.96
2017-02-26T12:29:21.808Z,12.02
2017-02-26T12:30:17.197Z,11.88
2017-02-26T12:31:16.608Z,11.96
2017-02-26T12:33:20.021Z,12.02
2017-02-26T12:34:17.344Z,11.96
2017-02-26T12:35:15.739Z,11.88
2017-02-26T12:42:16.612Z,11.85
2017-02-26T12:43:18.719Z,11.71
2017-02-26T12:45:21.598Z,11.74
2017-02-26T12:46:21.059Z,11.64
2017-02-26T12:47:17.340Z,11.68
2017-02-26T12:48:14.989Z,11.72
2017-02-26T12:49:17.647Z,11.70
2017-02-26T12:50:12.735Z,11.73
2017-02-26T12:51:16.964Z,11.70
2017-02-26T12:52:21.551Z,11.71
2017-02-26T12:54:13.882Z,11.67
2017-02-26T12:55:17.642Z,11.72
2017-02-26T12:56:17.362Z,11.77
2017-02-26T12:57:21.908Z,11.76
2017-02-26T12:58:18.036Z,11.78
2017-02-26T12:59:16.170Z,11.74
2017-02-26T13:00:16.775Z,11.70
2017-02-26T13:05:21.012Z,11.80
2017-02-26T13:06:27.039Z,11.67
2017-02-26T13:07:15.527Z,11.74
2017-02-26T13:08:21.353Z,11.77
2017-02-26T13:09:27.677Z,11.68
2017-02-26T13:10:23.276Z,11.76
2017-02-26T13:11:17.873Z,11.73
2017-02-26T13:13:17.367Z,11.83
2017-02-26T13:14:17.373Z,11.82
2017-02-26T13:15:22.083Z,11.73
2017-02-26T13:17:12.049Z,11.92
2017-02-26T13:18:13.627Z,11.97
2017-02-26T13:19:12.521Z,11.95
2017-02-26T13:20:20.581Z,11.71
2017-02-26T13:21:20.708Z,11.74
2017-02-26T13:22:17.453Z,11.76
2017-02-26T13:23:28.034Z,11.84
2017-02-26T13:24:16.075Z,11.85
2017-02-26T13:25:17.188Z,11.84
2017-02-26T13:26:17.313Z,11.86
2017-02-26T13:27:13.059Z,11.89
2017-02-26T13:28:12.844Z,11.90
2017-02-26T13:29:15.073Z,11.99
2017-02-26T13:30:16.777Z,11.97
2017-02-26T13:31:16.903Z,12.07
2017-02-26T13:32:17.725Z,12.11
2017-02-26T13:33:20.806Z,12.10
2017-02-26T13:34:17.727Z,12.21
2017-02-26T13:37:22.965Z,12.24
2017-02-26T13:38:17.212Z,12.25
2017-02-26T13:39:18.140Z,12.24
2017-02-26T13:40:22.160Z,12.16
2017-02-26T13:41:13.485Z,12.24
2017-02-26T13:42:20.605Z,12.18
2017-02-26T13:44:18.163Z,12.52
2017-02-26T13:45:17.422Z,12.65
2017-02-26T13:46:12.223Z,12.61
2017-02-26T13:47:16.849Z,12.64
2017-02-26T13:49:22.928Z,12.54
2017-02-26T13:50:16.406Z,12.34
2017-02-26T13:51:14.779Z,12.31
2017-02-26T13:55:21.213Z,12.30
2017-02-26T13:56:23.317Z,12.33
2017-02-26T13:57:16.515Z,12.33
2017-02-26T13:58:20.616Z,12.24
2017-02-26T14:02:26.431Z,12.07
2017-02-26T14:03:23.104Z,12.12
2017-02-26T14:04:18.756Z,12.18
2017-02-26T14:05:19.306Z,12.20
2017-02-26T14:06:13.074Z,12.12
2017-02-26T14:07:17.212Z,12.17